Spanish Fork, Utah
Current Conditions -  °F | °C
As of 12:52 PM on Wednesday 28 Jan 2015 (Local Time) from KPVU Reporting Station
Overcast Overcast  
Wind Chill: 48°   Ceiling: 5500
Heat Index: 48°   Visibility: 10mi
Dew Point: 36°   Wind: 3mph
Humidity: 62%   Direction: NA
Pressure: 30.29"   Gusts: NA
Location:  40.11°N, 111.65°W
Report Text: KPVU 281952Z VRB03KT 10SM SCT046 BKN055 OVC080 09/02 A3029
Loading
Personal Weather Stations






























Interactive Weather Map New forecast layout! Learn more

10-Day Weather Forecast

Advertisements
Track Severe Weather on mobile